createdAt,value
2022-08-21T00:00:29.936Z,101751.00
2022-08-21T00:01:04.286Z,101754.91
2022-08-21T00:01:38.819Z,101755.69
2022-08-21T00:02:17.924Z,101754.13
2022-08-21T00:02:53.550Z,101754.50
2022-08-21T00:03:24.963Z,101759.22
2022-08-21T00:04:22.489Z,101761.19
2022-08-21T00:04:57.201Z,101758.03
2022-08-21T00:05:29.751Z,101759.22
2022-08-21T00:06:01.364Z,101757.63
2022-08-21T00:06:34.700Z,101766.25
2022-08-21T00:07:24.378Z,101758.00
2022-08-21T00:07:56.911Z,101758.41
2022-08-21T00:08:46.607Z,101757.59
2022-08-21T00:09:19.787Z,101761.91
2022-08-21T00:09:51.164Z,101767.41
2022-08-21T00:10:23.899Z,101766.63
2022-08-21T00:10:56.561Z,101764.25
2022-08-21T00:11:28.132Z,101756.41
2022-08-21T00:11:59.509Z,101760.34
2022-08-21T00:12:32.034Z,101762.69
2022-08-21T00:13:05.832Z,101762.69
2022-08-21T00:13:37.712Z,101756.41
2022-08-21T00:14:10.673Z,101764.63
2022-08-21T00:14:42.195Z,101756.03
2022-08-21T00:16:10.632Z,101759.16
2022-08-21T00:16:42.228Z,101757.56
2022-08-21T00:17:13.605Z,101760.69
2022-08-21T00:18:03.664Z,101758.75
2022-08-21T00:18:35.036Z,101763.03
2022-08-21T00:19:07.793Z,101764.63
2022-08-21T00:19:39.240Z,101755.97
2022-08-21T00:20:12.724Z,101763.03
2022-08-21T00:20:45.336Z,101766.97
2022-08-21T00:21:17.659Z,101761.06
2022-08-21T00:21:49.606Z,101757.13
2022-08-21T00:22:40.010Z,101762.25
2022-08-21T00:23:12.224Z,101765.38
2022-08-21T00:23:44.299Z,101757.94
2022-08-21T00:24:15.907Z,101763.81
2022-08-21T00:24:47.230Z,101755.56
2022-08-21T00:25:20.117Z,101761.84
2022-08-21T00:25:55.782Z,101757.91
2022-08-21T00:26:27.430Z,101758.69
2022-08-21T00:26:59.926Z,101760.28
2022-08-21T00:27:31.288Z,101756.72
2022-08-21T00:28:21.327Z,101760.25
2022-08-21T00:28:52.988Z,101757.91
2022-08-21T00:29:24.542Z,101750.03
2022-08-21T00:31:04.843Z,101761.03
2022-08-21T00:31:36.797Z,101761.41
2022-08-21T00:32:08.252Z,101757.09
2022-08-21T00:33:48.352Z,101753.56
2022-08-21T00:35:13.107Z,101752.38
2022-08-21T00:35:44.558Z,101749.25
2022-08-21T00:36:16.489Z,101756.69
2022-08-21T00:36:48.013Z,101748.84
2022-08-21T00:37:20.002Z,101746.88
2022-08-21T00:37:51.431Z,101755.50
2022-08-21T00:38:23.330Z,101750.00
2022-08-21T00:39:13.484Z,101748.03
2022-08-21T00:39:45.093Z,101749.59
2022-08-21T00:40:21.286Z,101750.00
2022-08-21T00:40:56.261Z,101750.00
2022-08-21T00:41:37.359Z,101751.94
2022-08-21T00:42:11.004Z,101747.59
2022-08-21T00:42:42.845Z,101746.44
2022-08-21T00:43:17.897Z,101747.22
2022-08-21T00:43:49.300Z,101747.59
2022-08-21T00:44:20.692Z,101747.59
2022-08-21T00:44:52.542Z,101747.19
2022-08-21T00:45:25.113Z,101738.16
2022-08-21T00:45:57.152Z,101753.06
2022-08-21T00:47:19.437Z,101749.91
2022-08-21T00:47:52.391Z,101748.34
2022-08-21T00:48:24.450Z,101745.22
2022-08-21T00:48:58.761Z,101743.25
2022-08-21T00:49:30.496Z,101740.91
2022-08-21T00:50:02.195Z,101744.81
2022-08-21T00:50:38.774Z,101743.63
2022-08-21T00:51:23.270Z,101749.50
2022-08-21T00:51:59.087Z,101754.63
2022-08-21T00:52:34.896Z,101749.13
2022-08-21T00:53:08.910Z,101749.13
2022-08-21T00:53:44.729Z,101749.13
2022-08-21T00:54:26.400Z,101751.47
2022-08-21T00:55:00.796Z,101748.34
2022-08-21T00:55:34.849Z,101747.97
2022-08-21T00:56:09.540Z,101751.47
2022-08-21T00:56:43.175Z,101747.56
2022-08-21T00:57:26.836Z,101750.69
2022-08-21T00:58:01.635Z,101752.25
2022-08-21T00:58:33.808Z,101752.63
2022-08-21T00:59:07.284Z,101748.69
2022-08-21T00:59:41.312Z,101755.38
2022-08-21T01:00:17.528Z,101751.06
2022-08-21T01:00:50.874Z,101754.19
2022-08-21T01:01:22.637Z,101754.19
2022-08-21T01:02:44.112Z,101747.91
2022-08-21T01:03:19.564Z,101753.00
2022-08-21T01:03:55.384Z,101745.94
2022-08-21T01:04:27.273Z,101750.63
2022-08-21T01:05:18.050Z,101749.03
2022-08-21T01:05:50.021Z,101749.84
2022-08-21T01:06:21.984Z,101743.94
2022-08-21T01:07:45.568Z,101742.34
2022-08-21T01:08:18.747Z,101749.00
2022-08-21T01:08:50.460Z,101743.16
2022-08-21T01:09:22.000Z,101751.38
2022-08-21T01:09:53.377Z,101740.00
2022-08-21T01:10:25.243Z,101743.91
2022-08-21T01:10:57.811Z,101743.91
2022-08-21T01:11:29.195Z,101738.78
2022-08-21T01:12:52.418Z,101748.22
2022-08-21T01:13:25.451Z,101739.94
2022-08-21T01:13:56.868Z,101736.84
2022-08-21T01:14:29.458Z,101735.63
2022-08-21T01:15:03.757Z,101737.97
2022-08-21T01:15:38.708Z,101732.84
2022-08-21T01:16:10.902Z,101732.88
2022-08-21T01:16:45.811Z,101737.56
2022-08-21T01:17:19.518Z,101742.25
2022-08-21T01:17:51.904Z,101735.59
2022-08-21T01:18:23.628Z,101735.59
2022-08-21T01:18:56.012Z,101731.63
2022-08-21T01:19:28.034Z,101729.69
2022-08-21T01:20:01.373Z,101733.22
2022-08-21T01:20:33.145Z,101737.53
2022-08-21T01:21:08.067Z,101737.94
2022-08-21T01:22:47.275Z,101744.22
2022-08-21T01:23:18.639Z,101739.13
2022-08-21T01:23:53.575Z,101730.88
2022-08-21T01:24:25.040Z,101729.69
2022-08-21T01:24:56.616Z,101736.75
2022-08-21T01:25:28.154Z,101745.75
2022-08-21T01:25:59.704Z,101744.19
2022-08-21T01:26:34.274Z,101740.28
2022-08-21T01:27:06.487Z,101750.47
2022-08-21T01:27:38.172Z,101742.63
2022-08-21T01:28:14.564Z,101741.44
2022-08-21T01:28:52.248Z,101744.56
2022-08-21T01:30:05.446Z,101746.91
2022-08-21T01:30:39.556Z,101750.81
2022-08-21T01:31:14.638Z,101743.72
2022-08-21T01:32:04.809Z,101742.16
2022-08-21T01:32:36.427Z,101755.47
2022-08-21T01:33:07.930Z,101743.34
2022-08-21T01:33:39.612Z,101748.03
2022-08-21T01:34:12.014Z,101743.72
2022-08-21T01:34:45.427Z,101746.47
2022-08-21T01:35:18.433Z,101751.94
2022-08-21T01:35:49.771Z,101747.25
2022-08-21T01:36:21.277Z,101739.81
2022-08-21T01:36:53.147Z,101742.97
2022-08-21T01:37:24.524Z,101734.31
2022-08-21T01:37:56.118Z,101741.38
2022-08-21T01:38:27.901Z,101738.22
2022-08-21T01:39:01.098Z,101740.59
2022-08-21T01:39:33.217Z,101736.66
2022-08-21T01:40:07.162Z,101739.44
2022-08-21T01:40:38.684Z,101740.97
2022-08-21T01:41:10.298Z,101734.31
2022-08-21T01:41:42.393Z,101741.75
2022-08-21T01:42:14.585Z,101736.69
2022-08-21T01:42:47.050Z,101735.91
2022-08-21T01:43:18.456Z,101735.47
2022-08-21T01:43:55.398Z,101726.47
2022-08-21T01:44:26.966Z,101740.97
2022-08-21T01:45:47.868Z,101740.22
2022-08-21T01:46:19.900Z,101742.16
2022-08-21T01:46:52.476Z,101739.44
2022-08-21T01:47:24.003Z,101729.22
2022-08-21T01:47:55.709Z,101733.16
2022-08-21T01:48:27.202Z,101731.94
2022-08-21T01:49:00.049Z,101739.44
2022-08-21T01:49:31.893Z,101735.91
2022-08-21T01:50:06.923Z,101737.84
2022-08-21T01:50:38.484Z,101729.59
2022-08-21T01:51:10.244Z,101729.22
2022-08-21T01:51:41.806Z,101731.94
2022-08-21T01:52:13.360Z,101739.00
2022-08-21T01:53:36.696Z,101731.94
2022-08-21T01:54:08.432Z,101737.03
2022-08-21T01:54:40.159Z,101729.97
2022-08-21T01:55:16.883Z,101735.41
2022-08-21T01:55:48.290Z,101732.25
2022-08-21T01:56:19.907Z,101734.63
2022-08-21T01:56:54.063Z,101735.41
2022-08-21T01:57:26.200Z,101737.78
2022-08-21T01:57:59.104Z,101731.47
2022-08-21T01:59:19.905Z,101728.34
2022-08-21T01:59:51.261Z,101736.94
2022-08-21T02:00:26.396Z,101728.31
2022-08-21T02:00:58.363Z,101734.22
2022-08-21T02:01:29.782Z,101730.69
2022-08-21T02:02:01.696Z,101732.25
2022-08-21T02:02:33.093Z,101731.47
2022-08-21T02:03:04.712Z,101727.53
2022-08-21T02:03:54.556Z,101728.31
2022-08-21T02:04:44.871Z,101731.06
2022-08-21T02:05:17.103Z,101729.47
2022-08-21T02:05:48.605Z,101728.69
2022-08-21T02:07:10.338Z,101732.97
2022-08-21T02:07:45.685Z,101731.81
2022-08-21T02:08:17.031Z,101728.69
2022-08-21T02:08:48.513Z,101727.09
2022-08-21T02:09:20.048Z,101725.53
2022-08-21T02:09:51.799Z,101730.22
2022-08-21T02:10:32.053Z,101721.63
2022-08-21T02:11:03.580Z,101732.97
2022-08-21T02:12:25.499Z,101726.72
2022-08-21T02:12:57.871Z,101724.00
2022-08-21T02:13:29.408Z,101715.75
2022-08-21T02:14:01.065Z,101729.47
2022-08-21T02:14:32.981Z,101723.19
2022-08-21T02:15:06.427Z,101726.72
2022-08-21T02:15:56.585Z,101716.53
2022-08-21T02:16:28.452Z,101720.06
2022-08-21T02:17:58.644Z,101722.78
2022-08-21T02:18:30.656Z,101730.22
2022-08-21T02:19:02.397Z,101717.69
2022-08-21T02:19:39.489Z,101723.53
2022-08-21T02:20:18.060Z,101730.59
2022-08-21T02:20:55.880Z,101720.81
2022-08-21T02:22:16.840Z,101719.59
2022-08-21T02:23:06.935Z,101717.22
2022-08-21T02:23:38.368Z,101719.19
2022-08-21T02:24:10.231Z,101721.13
2022-08-21T02:24:54.731Z,101714.84
2022-08-21T02:25:28.015Z,101723.09
2022-08-21T02:26:01.527Z,101721.50
2022-08-21T02:26:33.077Z,101722.69
2022-08-21T02:27:04.745Z,101721.88
2022-08-21T02:27:43.901Z,101715.63
2022-08-21T02:28:15.729Z,101713.66
2022-08-21T02:28:47.578Z,101713.25
2022-08-21T02:29:18.966Z,101714.03
2022-08-21T02:30:08.679Z,101714.84
2022-08-21T02:30:44.412Z,101721.09
2022-08-21T02:31:16.024Z,101713.63
2022-08-21T02:31:47.359Z,101710.50
2022-08-21T02:32:18.690Z,101716.00
2022-08-21T02:32:50.290Z,101711.25
2022-08-21T02:33:21.914Z,101710.09
2022-08-21T02:33:53.522Z,101705.81
2022-08-21T02:34:24.925Z,101712.88
2022-08-21T02:35:01.088Z,101711.31
2022-08-21T02:35:32.544Z,101711.69
2022-08-21T02:36:59.658Z,101709.72
2022-08-21T02:37:31.523Z,101711.25
2022-08-21T02:38:07.169Z,101705.41
2022-08-21T02:38:44.990Z,101708.13
2022-08-21T02:39:16.576Z,101710.47
2022-08-21T02:40:00.996Z,101704.19
2022-08-21T02:40:36.348Z,101708.50
2022-08-21T02:41:15.227Z,101708.88
2022-08-21T02:42:05.293Z,101708.09
2022-08-21T02:42:37.172Z,101708.88
2022-08-21T02:43:08.732Z,101708.88
2022-08-21T02:43:43.093Z,101711.63
2022-08-21T02:44:14.454Z,101704.16
2022-08-21T02:45:04.715Z,101708.06
2022-08-21T02:45:37.654Z,101702.22
2022-08-21T02:46:10.902Z,101704.56
2022-08-21T02:46:42.235Z,101697.50
2022-08-21T02:47:15.125Z,101699.44
2022-08-21T02:48:42.992Z,101705.31
2022-08-21T02:49:14.453Z,101703.38
2022-08-21T02:49:45.934Z,101697.09
2022-08-21T02:50:24.813Z,101705.31
2022-08-21T02:51:02.979Z,101700.63
2022-08-21T02:51:34.311Z,101699.47
2022-08-21T02:52:06.788Z,101698.69
2022-08-21T02:52:38.162Z,101693.16
2022-08-21T02:53:16.230Z,101689.63
2022-08-21T02:53:48.346Z,101697.09
2022-08-21T02:54:19.723Z,101703.75
2022-08-21T02:54:51.316Z,101696.66
2022-08-21T02:55:41.556Z,101697.47
2022-08-21T02:56:16.151Z,101702.16
2022-08-21T02:56:47.522Z,101701.75
2022-08-21T02:57:18.872Z,101693.91
2022-08-21T02:57:50.665Z,101690.78
2022-08-21T02:58:28.949Z,101689.59
2022-08-21T02:59:00.306Z,101693.53
2022-08-21T02:59:50.329Z,101694.69
2022-08-21T03:00:24.370Z,101692.69
2022-08-21T03:00:55.970Z,101692.69
2022-08-21T03:01:27.851Z,101693.88
2022-08-21T03:01:59.329Z,101695.03
2022-08-21T03:02:30.809Z,101694.28
2022-08-21T03:03:02.766Z,101699.34
2022-08-21T03:03:35.515Z,101696.59
2022-08-21T03:04:07.987Z,101692.69
2022-08-21T03:04:42.316Z,101692.69
2022-08-21T03:05:18.610Z,101690.34
2022-08-21T03:05:50.303Z,101687.59
2022-08-21T03:06:23.420Z,101690.75
2022-08-21T03:06:54.765Z,101685.66
2022-08-21T03:07:26.365Z,101684.06
2022-08-21T03:07:59.599Z,101684.06
2022-08-21T03:08:31.041Z,101690.75
2022-08-21T03:09:02.751Z,101683.28
2022-08-21T03:09:34.309Z,101693.84
2022-08-21T03:10:07.019Z,101686.44
2022-08-21T03:10:45.814Z,101692.69
2022-08-21T03:11:17.347Z,101684.06
2022-08-21T03:11:48.751Z,101683.69
2022-08-21T03:13:09.284Z,101692.69
2022-08-21T03:13:41.000Z,101688.00
2022-08-21T03:14:12.426Z,101682.47
2022-08-21T03:14:43.830Z,101681.69
2022-08-21T03:15:18.808Z,101688.00
2022-08-21T03:15:50.845Z,101684.47
2022-08-21T03:16:22.247Z,101687.59
2022-08-21T03:16:53.666Z,101687.19
2022-08-21T03:17:29.593Z,101683.31
2022-08-21T03:18:02.292Z,101686.44
2022-08-21T03:18:34.011Z,101689.56
2022-08-21T03:19:07.547Z,101687.22
2022-08-21T03:19:38.923Z,101684.06
2022-08-21T03:20:11.221Z,101691.91
2022-08-21T03:20:43.029Z,101687.22
2022-08-21T03:21:15.038Z,101677.03
2022-08-21T03:21:46.409Z,101683.69
2022-08-21T03:22:18.372Z,101682.91
2022-08-21T03:22:53.008Z,101683.69
2022-08-21T03:23:24.750Z,101683.31
2022-08-21T03:23:56.488Z,101688.00
2022-08-21T03:24:27.858Z,101685.66
2022-08-21T03:25:00.270Z,101679.38
2022-08-21T03:25:40.706Z,101677.78
2022-08-21T03:26:12.585Z,101682.91
2022-08-21T03:26:44.341Z,101679.38
2022-08-21T03:27:16.546Z,101686.06
2022-08-21T03:27:49.943Z,101687.59
2022-08-21T03:28:43.124Z,101693.50
2022-08-21T03:29:14.461Z,101680.16
2022-08-21T03:29:45.836Z,101693.88
2022-08-21T03:30:21.068Z,101687.59
2022-08-21T03:30:53.307Z,101680.94
2022-08-21T03:31:25.374Z,101688.38
2022-08-21T03:31:56.756Z,101688.78
2022-08-21T03:32:28.308Z,101682.13
2022-08-21T03:33:00.836Z,101684.47
2022-08-21T03:33:32.960Z,101679.00
2022-08-21T03:34:05.249Z,101686.81
2022-08-21T03:34:55.392Z,101682.91
2022-08-21T03:35:28.492Z,101688.38
2022-08-21T03:36:54.288Z,101684.06
2022-08-21T03:37:25.874Z,101681.31
2022-08-21T03:37:57.321Z,101684.06
2022-08-21T03:38:31.610Z,101682.53
2022-08-21T03:39:04.099Z,101678.19
2022-08-21T03:39:54.698Z,101680.53
2022-08-21T03:40:26.175Z,101687.59
2022-08-21T03:40:57.709Z,101685.63
2022-08-21T03:41:29.395Z,101682.06
2022-08-21T03:42:50.893Z,101681.28
2022-08-21T03:43:22.381Z,101674.97
2022-08-21T03:43:54.674Z,101682.03
2022-08-21T03:44:26.660Z,101681.25
2022-08-21T03:44:58.013Z,101681.25
2022-08-21T03:46:06.952Z,101688.66
2022-08-21T03:46:38.437Z,101679.25
2022-08-21T03:47:10.510Z,101678.47
2022-08-21T03:47:51.937Z,101689.41
2022-08-21T03:48:23.699Z,101675.72
2022-08-21T03:51:27.335Z,101683.91
2022-08-21T03:51:59.795Z,101681.53
2022-08-21T03:52:31.535Z,101677.25
2022-08-21T03:53:03.340Z,101669.81
2022-08-21T03:53:34.943Z,101678.41
2022-08-21T03:54:06.312Z,101671.72
2022-08-21T03:54:37.684Z,101676.03
2022-08-21T03:55:09.048Z,101672.88
2022-08-21T03:55:40.533Z,101674.84
2022-08-21T03:56:12.391Z,101675.22
2022-08-21T03:56:43.781Z,101668.94
2022-08-21T03:57:15.159Z,101679.16
2022-08-21T03:57:46.527Z,101680.31
2022-08-21T03:59:09.657Z,101674.06
2022-08-21T03:59:41.064Z,101682.63
2022-08-21T04:00:14.463Z,101681.47
2022-08-21T04:00:47.640Z,101682.63
2022-08-21T04:01:20.030Z,101681.06
2022-08-21T04:02:00.054Z,101683.81
2022-08-21T04:02:31.464Z,101680.28
2022-08-21T04:03:02.800Z,101684.19
2022-08-21T04:03:37.500Z,101682.59
2022-08-21T04:04:08.886Z,101676.34
2022-08-21T04:04:40.298Z,101674.38
2022-08-21T04:05:13.365Z,101672.75
2022-08-21T04:05:46.309Z,101677.88
2022-08-21T04:06:18.890Z,101675.88
2022-08-21T04:07:09.140Z,101685.28
2022-08-21T04:07:40.813Z,101679.81
2022-08-21T04:08:13.123Z,101672.75
2022-08-21T04:08:44.552Z,101684.88
2022-08-21T04:09:34.912Z,101678.25
2022-08-21T04:10:07.839Z,101685.28
2022-08-21T04:10:41.164Z,101679.41
2022-08-21T04:11:12.824Z,101673.50
2022-08-21T04:11:44.546Z,101678.25
2022-08-21T04:12:15.916Z,101680.19
2022-08-21T04:12:47.289Z,101677.03
2022-08-21T04:13:19.526Z,101677.81
2022-08-21T04:13:50.929Z,101671.97
2022-08-21T04:14:23.105Z,101677.44
2022-08-21T04:14:54.480Z,101684.50
2022-08-21T04:15:26.782Z,101681.75
2022-08-21T04:15:59.442Z,101678.59
2022-08-21T04:16:31.794Z,101675.09
2022-08-21T04:17:03.370Z,101676.28
2022-08-21T04:17:35.787Z,101672.75
2022-08-21T04:18:09.368Z,101673.56
2022-08-21T04:18:41.640Z,101681.41
2022-08-21T04:19:16.892Z,101678.25
2022-08-21T04:19:53.166Z,101689.63
2022-08-21T04:20:25.955Z,101680.59
2022-08-21T04:20:59.244Z,101674.34
2022-08-21T04:21:31.472Z,101673.13
2022-08-21T04:22:02.891Z,101675.50
2022-08-21T04:22:34.277Z,101676.66
2022-08-21T04:23:05.976Z,101677.44
2022-08-21T04:23:38.392Z,101677.88
2022-08-21T04:24:11.036Z,101678.66
2022-08-21T04:24:43.107Z,101678.25
2022-08-21T04:25:15.917Z,101679.44
2022-08-21T04:25:47.307Z,101679.03
2022-08-21T04:26:18.670Z,101671.97
2022-08-21T04:26:50.047Z,101672.34
2022-08-21T04:27:21.428Z,101672.34
2022-08-21T04:27:53.623Z,101675.50
2022-08-21T04:28:27.233Z,101669.22
2022-08-21T04:29:00.515Z,101677.88
2022-08-21T04:29:31.982Z,101674.28
2022-08-21T04:30:05.355Z,101675.88
2022-08-21T04:30:36.817Z,101675.88
2022-08-21T04:31:09.833Z,101684.13
2022-08-21T04:31:41.227Z,101673.13
2022-08-21T04:32:12.604Z,101675.50
2022-08-21T04:32:49.907Z,101675.13
2022-08-21T04:33:22.689Z,101670.41
2022-08-21T04:34:43.025Z,101682.97
2022-08-21T04:35:17.073Z,101682.59
2022-08-21T04:35:49.888Z,101679.84
2022-08-21T04:36:23.622Z,101678.28
2022-08-21T04:36:55.900Z,101683.38
2022-08-21T04:37:27.784Z,101682.22
2022-08-21T04:37:59.214Z,101676.69
2022-08-21T04:38:36.504Z,101674.38
2022-08-21T04:39:10.092Z,101671.66
2022-08-21T04:39:41.642Z,101675.22
2022-08-21T04:40:15.474Z,101673.63
2022-08-21T04:42:46.987Z,101680.31
2022-08-21T04:43:19.310Z,101681.09
2022-08-21T04:43:50.844Z,101681.09
2022-08-21T04:44:22.206Z,101679.16
2022-08-21T04:44:53.588Z,101678.38
2022-08-21T04:45:45.640Z,101679.16
2022-08-21T04:46:17.157Z,101675.63
2022-08-21T04:46:48.492Z,101676.00
2022-08-21T04:47:20.541Z,101674.44
2022-08-21T04:48:42.556Z,101671.31
2022-08-21T04:49:13.878Z,101673.25
2022-08-21T04:49:46.156Z,101676.00
2022-08-21T04:50:17.645Z,101662.69
2022-08-21T04:51:12.834Z,101678.75
2022-08-21T04:52:02.916Z,101677.94
2022-08-21T04:52:34.600Z,101672.47
2022-08-21T04:54:11.658Z,101678.31
2022-08-21T04:54:46.180Z,101675.97
2022-08-21T04:55:36.416Z,101683.81
2022-08-21T04:56:16.447Z,101678.31
2022-08-21T04:56:54.997Z,101681.44
2022-08-21T04:58:20.071Z,101678.31
2022-08-21T04:58:57.044Z,101681.84
2022-08-21T04:59:34.476Z,101674.38
2022-08-21T05:00:25.679Z,101681.06
2022-08-21T05:01:00.977Z,101682.22
2022-08-21T05:01:36.560Z,101675.59
2022-08-21T05:02:09.861Z,101674.00
2022-08-21T05:03:02.074Z,101683.44
2022-08-21T05:03:35.559Z,101685.38
2022-08-21T05:04:10.279Z,101682.63
2022-08-21T05:04:54.512Z,101684.22
2022-08-21T05:05:26.152Z,101685.38
2022-08-21T05:05:57.992Z,101681.47
2022-08-21T05:06:34.449Z,101685.78
2022-08-21T05:07:11.215Z,101679.91
2022-08-21T05:07:44.940Z,101680.31
2022-08-21T05:08:20.565Z,101692.47
2022-08-21T05:09:01.571Z,101690.94
2022-08-21T05:09:33.448Z,101690.94
2022-08-21T05:10:05.958Z,101688.16
2022-08-21T05:10:37.411Z,101688.56
2022-08-21T05:11:08.846Z,101693.28
2022-08-21T05:12:47.894Z,101690.53
2022-08-21T05:13:20.243Z,101692.50
2022-08-21T05:14:12.168Z,101696.81
2022-08-21T05:14:43.875Z,101691.31
2022-08-21T05:15:17.579Z,101696.44
2022-08-21T05:15:49.539Z,101699.56
2022-08-21T05:16:30.320Z,101700.34
2022-08-21T05:17:27.665Z,101703.50
2022-08-21T05:18:01.625Z,101698.38
2022-08-21T05:18:52.355Z,101707.81
2022-08-21T05:19:24.321Z,101699.59
2022-08-21T05:19:56.467Z,101700.38
2022-08-21T05:20:28.459Z,101705.88
2022-08-21T05:21:00.047Z,101702.34
2022-08-21T05:21:31.426Z,101706.28
2022-08-21T05:22:05.639Z,101703.53
2022-08-21T05:22:38.149Z,101703.53
2022-08-21T05:23:12.305Z,101706.28
2022-08-21T05:23:43.712Z,101703.53
2022-08-21T05:24:34.558Z,101705.53
2022-08-21T05:25:10.628Z,101710.63
2022-08-21T05:25:42.529Z,101698.88
2022-08-21T05:26:32.321Z,101704.38
2022-08-21T05:27:04.524Z,101709.47
2022-08-21T05:27:55.108Z,101704.78
2022-08-21T05:28:29.851Z,101707.53
2022-08-21T05:29:01.191Z,101701.25
2022-08-21T05:29:33.503Z,101702.84
2022-08-21T05:30:09.373Z,101708.31
2022-08-21T05:30:59.499Z,101709.50
2022-08-21T05:31:31.143Z,101711.47
2022-08-21T05:33:00.905Z,101716.19
2022-08-21T05:33:32.412Z,101704.44
2022-08-21T05:34:07.242Z,101707.56
2022-08-21T05:34:38.645Z,101713.06
2022-08-21T05:35:10.201Z,101717.38
2022-08-21T05:35:41.982Z,101713.47
2022-08-21T05:36:13.363Z,101711.50
2022-08-21T05:36:45.599Z,101706.78
2022-08-21T05:37:17.207Z,101713.88
2022-08-21T05:37:48.753Z,101702.88
2022-08-21T05:38:20.651Z,101716.63
2022-08-21T05:38:52.220Z,101707.19
2022-08-21T05:39:23.801Z,101714.66
2022-08-21T05:40:05.015Z,101703.28
2022-08-21T05:40:47.482Z,101711.56
2022-08-21T05:41:19.144Z,101703.34
2022-08-21T05:41:50.569Z,101706.06
2022-08-21T05:42:21.939Z,101704.88
2022-08-21T05:42:55.828Z,101715.88
2022-08-21T05:43:27.345Z,101712.75
2022-08-21T05:43:58.786Z,101707.66
2022-08-21T05:44:48.817Z,101710.00
2022-08-21T05:45:26.392Z,101713.97
2022-08-21T05:46:12.203Z,101710.06
2022-08-21T05:46:43.577Z,101699.06
2022-08-21T05:47:16.065Z,101704.94
2022-08-21T05:47:47.419Z,101702.22
2022-08-21T05:48:23.580Z,101705.78
2022-08-21T05:48:55.120Z,101706.94
2022-08-21T05:49:45.356Z,101709.72
2022-08-21T05:50:16.696Z,101712.47
2022-08-21T05:50:49.358Z,101712.84
2022-08-21T05:51:20.731Z,101708.94
2022-08-21T05:51:52.100Z,101714.41
2022-08-21T05:52:24.249Z,101705.81
2022-08-21T05:52:56.666Z,101707.78
2022-08-21T05:53:39.425Z,101709.75
2022-08-21T05:54:12.126Z,101701.91
2022-08-21T05:54:43.476Z,101712.13
2022-08-21T05:55:15.377Z,101710.59
2022-08-21T05:55:47.961Z,101710.59
2022-08-21T05:57:09.378Z,101708.25
2022-08-21T05:57:42.152Z,101700.81
2022-08-21T05:58:19.277Z,101712.56
2022-08-21T05:59:28.355Z,101705.16
2022-08-21T05:59:59.754Z,101696.94
2022-08-21T06:00:31.171Z,101702.44
2022-08-21T06:01:04.182Z,101706.75
2022-08-21T06:01:54.171Z,101699.28
2022-08-21T06:02:25.684Z,101701.25
2022-08-21T06:02:57.330Z,101706.75
2022-08-21T06:03:33.770Z,101707.13
2022-08-21T06:04:05.537Z,101701.25
2022-08-21T06:05:36.741Z,101704.03
2022-08-21T06:06:08.978Z,101704.47
2022-08-21T06:06:40.883Z,101703.66
2022-08-21T06:07:12.823Z,101702.13
2022-08-21T06:07:44.552Z,101702.91
2022-08-21T06:08:17.849Z,101704.50
2022-08-21T06:08:49.428Z,101700.16
2022-08-21T06:09:20.888Z,101701.75
2022-08-21T06:10:41.776Z,101704.94
2022-08-21T06:11:13.362Z,101701.81
2022-08-21T06:12:09.426Z,101705.31
2022-08-21T06:12:42.502Z,101704.13
2022-08-21T06:13:15.422Z,101707.28
2022-08-21T06:13:46.798Z,101704.56
2022-08-21T06:14:18.183Z,101703.38
2022-08-21T06:14:51.231Z,101707.31
2022-08-21T06:15:22.697Z,101704.19
2022-08-21T06:16:07.740Z,101711.28
2022-08-21T06:16:39.120Z,101710.50
2022-08-21T06:17:12.897Z,101707.00
2022-08-21T06:17:44.255Z,101706.22
2022-08-21T06:18:16.093Z,101705.88
2022-08-21T06:18:47.678Z,101701.16
2022-08-21T06:19:19.044Z,101701.97
2022-08-21T06:19:55.960Z,101707.84
2022-08-21T06:20:45.979Z,101704.34
2022-08-21T06:21:36.503Z,101709.06
2022-08-21T06:22:07.898Z,101707.53
2022-08-21T06:22:57.698Z,101711.06
2022-08-21T06:23:31.779Z,101716.16
2022-08-21T06:24:05.734Z,101716.56
2022-08-21T06:24:37.196Z,101709.91
2022-08-21T06:25:10.156Z,101716.97
2022-08-21T06:25:41.684Z,101707.56
2022-08-21T06:26:14.795Z,101709.13
2022-08-21T06:27:36.356Z,101711.91
2022-08-21T06:28:09.888Z,101711.50
2022-08-21T06:28:42.898Z,101710.75
2022-08-21T06:30:26.023Z,101701.38
2022-08-21T06:30:57.399Z,101709.22
2022-08-21T06:31:29.527Z,101710.00
2022-08-21T06:32:01.107Z,101707.66
2022-08-21T06:32:33.151Z,101708.84
2022-08-21T06:33:05.403Z,101704.91
2022-08-21T06:33:36.716Z,101703.75
2022-08-21T06:34:09.108Z,101704.53
2022-08-21T06:34:41.903Z,101702.19
2022-08-21T06:35:13.239Z,101694.34
2022-08-21T06:35:44.668Z,101708.50
2022-08-21T06:36:16.416Z,101706.16
2022-08-21T06:36:47.780Z,101709.69
2022-08-21T06:37:19.152Z,101697.53
2022-08-21T06:37:50.493Z,101699.50
2022-08-21T06:38:21.812Z,101706.19
2022-08-21T06:38:53.205Z,101697.53
2022-08-21T06:39:30.662Z,101706.56
2022-08-21T06:40:25.789Z,101695.59
2022-08-21T06:40:57.963Z,101704.25
2022-08-21T06:41:30.444Z,101703.88
2022-08-21T06:42:32.794Z,101699.56
2022-08-21T06:43:10.424Z,101709.75
2022-08-21T06:43:41.775Z,101698.38
2022-08-21T06:44:13.107Z,101701.53
2022-08-21T06:44:45.083Z,101702.31
2022-08-21T06:45:16.812Z,101699.97
2022-08-21T06:45:48.146Z,101705.88
2022-08-21T06:46:19.596Z,101701.53
2022-08-21T06:46:50.902Z,101700.38
2022-08-21T06:47:22.287Z,101699.19
2022-08-21T06:47:53.623Z,101707.84
2022-08-21T06:48:25.027Z,101704.72
2022-08-21T06:48:56.997Z,101700.78
2022-08-21T06:49:28.319Z,101711.38
2022-08-21T06:49:59.714Z,101708.25
2022-08-21T06:50:31.283Z,101702.38
2022-08-21T06:51:03.701Z,101707.50
2022-08-21T06:51:35.039Z,101703.19
2022-08-21T06:52:11.270Z,101707.88
2022-08-21T06:52:42.744Z,101711.03
2022-08-21T06:53:17.094Z,101707.09
2022-08-21T06:53:48.457Z,101707.13
2022-08-21T06:54:19.795Z,101709.47
2022-08-21T06:54:51.119Z,101699.66
2022-08-21T06:55:24.466Z,101705.56
2022-08-21T06:55:57.642Z,101705.19
2022-08-21T06:56:28.972Z,101705.59
2022-08-21T06:57:00.554Z,101710.28
2022-08-21T06:57:31.876Z,101704.41
2022-08-21T06:58:04.338Z,101707.56
2022-08-21T06:58:35.711Z,101704.41
2022-08-21T06:59:07.108Z,101706.38
2022-08-21T06:59:38.442Z,101702.06
2022-08-21T07:00:10.888Z,101703.66
2022-08-21T07:00:48.699Z,101707.19
2022-08-21T07:01:24.847Z,101700.50
2022-08-21T07:01:56.793Z,101707.19
2022-08-21T07:02:28.243Z,101699.34
2022-08-21T07:03:00.257Z,101706.41
2022-08-21T07:03:37.775Z,101700.53
2022-08-21T07:04:09.255Z,101705.59
2022-08-21T07:04:52.812Z,101698.53
2022-08-21T07:05:27.923Z,101706.81
2022-08-21T07:05:59.381Z,101705.63